South Bend Regional Airport
KSBN : now visible

Aeroporto :











RITROVATECI SU...

 
LOGIN :

Iscrizione | Disclaimer

   EN    FR    IT 

 









Sommario :    VFR   VFR Marginale   IFR   IFR Intensivo   IFR Molto Intensivo
Visibilità : 
Base nubi : 
>= 8 km
>= 3000ft
5 / 8 km
1000 / 3000 ft
1500m / 5 km
500 / 1000 ft
800 / 1500m
200 / 500 ft
< 800m
< 200 ft
Simboli :   Temporali  Nebbia  Neve Forte  Precipitazioni Forti  Vento > 20 kt






- Altitudine del aeroporto : 799 ft
- Codice IATA : SBN


KSBN - South Bend Regional

ULTIMO METAR :
  • 250908Z AUTO 13006KT 5SM -RA BR BKN021 OVC026 21/19 A2996 RMK AO2 LTG DSNT E AND SE AND NW P0004 T02060189

METARs OBSOLETI :
  • 250854Z AUTO 13008KT 4SM VCTS RA BR BKN022 OVC027 21/19 A2996 RMK AO2 LTG DSNT E AND SE RAB0757 TSB11E49 SLP141 P0071 60071 T02060189 58005
  • 250849Z AUTO 13006KT 3SM VCTS +RA BR FEW013 BKN022 OVC027 21/19 A2997 RMK AO2 LTG DSNT E AND SE RAB0757 TSB11E49 P0069
  • 250837Z AUTO 15007KT 2SM +TSRA BR FEW014 SCT023 OVC029 21/19 A2997 RMK AO2 LTG DSNT E-S RAB0757 TSB11 P0062 T02060189
  • 250834Z AUTO 16007KT 1 1/2SM +TSRA BR SCT014 SCT025 OVC030 21/19 A2997 RMK AO2 LTG DSNT ALQDS RAB0757 TSB11 P0059 T02060189
  • 250821Z AUTO 20009KT 1 3/4SM +TSRA BR SCT016 BKN029 OVC034 21/19 A2999 RMK AO2 LTG DSNT ALQDS RAB0757 TSB11 P0030 T02060189
  • 250811Z AUTO 20008G20KT 2SM +TSRA BR FEW026 OVC036 21/19 A2998 RMK AO2 LTG DSNT S AND SW RAB0757 TSB11 P0013 T02060189
  • 250754Z AUTO 18008KT 10SM VCTS BKN036 OVC070 22/18 A2998 RMK AO2 LTG DSNT S-W SLP146 T02220178
  • 250654Z AUTO 17006KT 10SM OVC085 22/17 A2998 RMK AO2 SLP146 T02220172

TAF KSBN
Valido dal 25 a 09 ore il 26 a 06 ore UTC


250840Z 2509/2606 18012KT 5SM -SHRA BR VCTS SCT035CB OVC080
TEMPO 2509/2512 2SM TSRA BKN035CB
FM251200 19011G19KT 5SM SHRA BR VCTS OVC015CB
TEMPO 2512/2516 2SM +TSRA BR BKN007CB
FM251900 20013G22KT P6SM VCSH BKN015
FM252100 21014KT P6SM BKN025
FIR KZAU / America del Nord



MetMap, La meteo Aeronautica in un colpo d'occhio ! - Copyright ORBIFLY Dicembre 2007 - Disclaimer

ORBIFLY MET'MAP TEAM :

Programmazione e sviluppo : Alexandra Zaïnal
Concezione : Baudouin d'Aumeries
Aiuto per la programmazione : Marc-Olivier Méhu
Supporto tecnico e logistico : Manuel Goepfert
Aiuto per la traduzione : Arnaldo La Scala

Contatto : metmap@orbifly.com




FONTI E CREDITI :

   NOAA       Earth
Advisory